createdAt,value
2022-12-20T00:00:19.209Z,10.20
2022-12-20T00:02:47.310Z,10.10
2022-12-20T00:05:15.473Z,10.00
2022-12-20T00:07:43.495Z,9.90
2022-12-20T00:10:12.075Z,9.90
2022-12-20T00:12:41.526Z,9.80
2022-12-20T00:15:10.045Z,9.80
2022-12-20T00:17:38.036Z,9.80
2022-12-20T00:20:07.726Z,9.70
2022-12-20T00:22:35.751Z,9.70
2022-12-20T00:25:03.754Z,9.70
2022-12-20T00:27:31.781Z,9.80
2022-12-20T00:30:01.213Z,9.80
2022-12-20T00:32:29.205Z,9.90
2022-12-20T00:34:57.220Z,10.00
2022-12-20T00:37:26.049Z,10.10
2022-12-20T00:39:54.030Z,10.20
2022-12-20T00:42:22.886Z,10.20
2022-12-20T00:44:50.872Z,10.20
2022-12-20T00:47:20.296Z,10.20
2022-12-20T00:49:48.322Z,10.20
2022-12-20T00:52:16.655Z,10.20
2022-12-20T00:54:44.828Z,10.20
2022-12-20T00:57:12.851Z,10.20
2022-12-20T00:59:40.887Z,10.20
2022-12-20T01:02:09.145Z,10.20
2022-12-20T01:04:38.705Z,10.10
2022-12-20T01:07:06.781Z,10.10
2022-12-20T01:09:34.813Z,10.00
2022-12-20T01:12:02.820Z,10.00
2022-12-20T01:14:30.913Z,10.00
2022-12-20T01:16:58.972Z,10.00
2022-12-20T01:19:27.071Z,10.10
2022-12-20T01:21:56.545Z,10.10
2022-12-20T01:24:24.682Z,10.20
2022-12-20T01:26:52.702Z,10.20
2022-12-20T01:29:21.549Z,10.20
2022-12-20T01:31:49.663Z,10.10
2022-12-20T01:34:17.755Z,10.10
2022-12-20T01:36:46.151Z,10.10
2022-12-20T01:39:17.711Z,10.10
2022-12-20T01:41:47.139Z,10.10
2022-12-20T01:44:55.528Z,10.10
2022-12-20T01:47:24.419Z,10.00
2022-12-20T01:49:55.142Z,10.10
2022-12-20T01:52:29.075Z,10.10
2022-12-20T01:55:05.333Z,10.00
2022-12-20T01:57:39.252Z,10.00
2022-12-20T02:00:09.659Z,9.90
2022-12-20T02:02:42.383Z,9.90
2022-12-20T02:05:14.758Z,9.90
2022-12-20T02:07:47.447Z,9.90
2022-12-20T02:10:19.067Z,9.90
2022-12-20T02:12:48.695Z,9.90
2022-12-20T02:15:36.530Z,9.90
2022-12-20T02:18:16.494Z,9.90
2022-12-20T02:21:03.051Z,9.90
2022-12-20T02:24:13.157Z,9.80
2022-12-20T02:27:17.110Z,9.80
2022-12-20T02:30:07.070Z,9.80
2022-12-20T02:32:39.910Z,9.80
2022-12-20T02:35:10.159Z,9.70
2022-12-20T02:37:38.225Z,9.70
2022-12-20T02:40:08.030Z,9.60
2022-12-20T02:42:36.231Z,9.60
2022-12-20T02:45:17.725Z,9.50
2022-12-20T02:47:52.167Z,9.60
2022-12-20T02:50:31.958Z,9.50
2022-12-20T02:53:01.534Z,9.50
2022-12-20T02:55:36.963Z,9.50
2022-12-20T02:58:11.110Z,9.50
2022-12-20T03:00:44.723Z,9.50
2022-12-20T03:03:24.293Z,9.40
2022-12-20T03:05:54.826Z,9.40
2022-12-20T03:08:24.909Z,9.40
2022-12-20T03:10:54.263Z,9.40
2022-12-20T03:13:22.987Z,9.40
2022-12-20T03:15:58.616Z,9.40
2022-12-20T03:18:27.332Z,9.40
2022-12-20T03:20:55.388Z,9.40
2022-12-20T03:23:23.433Z,9.40
2022-12-20T03:25:51.502Z,9.30
2022-12-20T03:28:34.726Z,9.30
2022-12-20T03:31:04.122Z,9.30
2022-12-20T03:33:36.764Z,9.30
2022-12-20T03:36:08.316Z,9.30
2022-12-20T03:38:36.539Z,9.20
2022-12-20T03:41:06.675Z,9.30
2022-12-20T03:43:34.660Z,9.30
2022-12-20T03:46:04.124Z,9.30
2022-12-20T03:48:36.589Z,9.30
2022-12-20T03:51:05.281Z,9.30
2022-12-20T03:53:33.315Z,9.20
2022-12-20T03:56:01.474Z,9.10
2022-12-20T03:58:29.729Z,9.10
2022-12-20T04:00:58.282Z,9.10
2022-12-20T04:03:41.585Z,9.10
2022-12-20T04:06:09.776Z,9.10
2022-12-20T04:08:38.590Z,9.20
2022-12-20T04:11:19.105Z,9.20
2022-12-20T04:13:56.314Z,9.20
2022-12-20T04:16:26.685Z,9.20
2022-12-20T04:18:57.830Z,9.20
2022-12-20T04:21:28.819Z,9.20
2022-12-20T04:24:00.568Z,9.20
2022-12-20T04:26:38.914Z,9.20
2022-12-20T04:29:07.166Z,9.20
2022-12-20T04:31:36.361Z,9.30
2022-12-20T04:34:05.835Z,9.30
2022-12-20T04:36:34.929Z,9.30
2022-12-20T04:39:06.147Z,9.30
2022-12-20T04:41:44.428Z,9.30
2022-12-20T04:44:16.611Z,9.40
2022-12-20T04:46:44.676Z,9.40
2022-12-20T04:49:17.359Z,9.40
2022-12-20T04:51:45.981Z,9.30
2022-12-20T04:54:16.041Z,9.30
2022-12-20T04:56:51.662Z,9.30
2022-12-20T04:59:23.141Z,9.20
2022-12-20T05:01:54.869Z,9.30
2022-12-20T05:04:43.843Z,9.20
2022-12-20T05:07:12.119Z,9.20
2022-12-20T05:09:42.954Z,9.20
2022-12-20T05:12:11.090Z,9.20
2022-12-20T05:14:39.201Z,9.30
2022-12-20T05:17:07.468Z,9.20
2022-12-20T05:19:36.221Z,9.20
2022-12-20T05:22:34.567Z,9.30
2022-12-20T05:25:28.638Z,9.30
2022-12-20T05:27:58.891Z,9.30
2022-12-20T05:30:29.778Z,9.30
2022-12-20T05:32:57.849Z,9.30
2022-12-20T05:35:26.164Z,9.30
2022-12-20T05:38:02.462Z,9.40
2022-12-20T05:40:30.778Z,9.40
2022-12-20T05:43:00.676Z,9.40
2022-12-20T05:45:38.307Z,9.40
2022-12-20T05:48:13.997Z,9.40
2022-12-20T05:50:45.095Z,9.40
2022-12-20T05:53:29.171Z,9.50
2022-12-20T05:56:01.242Z,9.50
2022-12-20T05:58:40.169Z,9.50
2022-12-20T06:01:10.316Z,9.50
2022-12-20T06:03:40.696Z,9.50
2022-12-20T06:06:14.857Z,9.50
2022-12-20T06:08:48.065Z,9.50
2022-12-20T06:11:29.890Z,9.50
2022-12-20T06:14:04.462Z,9.50
2022-12-20T06:16:33.494Z,9.50
2022-12-20T06:19:02.529Z,9.60
2022-12-20T06:21:32.082Z,9.60
2022-12-20T06:24:02.205Z,9.70
2022-12-20T06:26:36.072Z,9.70
2022-12-20T06:29:07.111Z,9.70
2022-12-20T06:31:39.945Z,9.70
2022-12-20T06:34:08.851Z,9.70
2022-12-20T06:36:40.880Z,9.70
2022-12-20T06:39:15.571Z,9.70
2022-12-20T06:41:53.110Z,9.60
2022-12-20T06:44:21.221Z,9.60
2022-12-20T06:46:51.058Z,9.60
2022-12-20T06:49:19.371Z,9.60
2022-12-20T06:51:48.421Z,9.60
2022-12-20T06:54:19.797Z,9.60
2022-12-20T06:56:47.860Z,9.60
2022-12-20T06:59:17.138Z,9.50
2022-12-20T07:01:45.740Z,9.50
2022-12-20T07:04:13.919Z,9.50
2022-12-20T07:06:41.919Z,9.50
2022-12-20T07:09:10.246Z,9.50
2022-12-20T07:11:40.233Z,9.40
2022-12-20T07:14:08.521Z,9.40
2022-12-20T07:16:37.264Z,9.50
2022-12-20T07:19:05.542Z,9.50
2022-12-20T07:21:33.555Z,9.50
2022-12-20T07:24:01.544Z,9.60
2022-12-20T07:26:29.881Z,9.60
2022-12-20T07:28:59.311Z,9.60
2022-12-20T07:31:27.384Z,9.60
2022-12-20T07:33:56.294Z,9.60
2022-12-20T07:36:24.358Z,9.60
2022-12-20T07:38:52.892Z,9.60
2022-12-20T07:41:20.907Z,9.60
2022-12-20T07:43:48.900Z,9.60
2022-12-20T07:46:18.740Z,9.60
2022-12-20T07:48:46.731Z,9.60
2022-12-20T07:51:19.949Z,9.70
2022-12-20T07:53:52.978Z,9.70
2022-12-20T07:56:23.333Z,9.70
2022-12-20T07:58:56.238Z,9.70
2022-12-20T08:01:27.237Z,9.70
2022-12-20T08:04:01.251Z,9.70
2022-12-20T08:06:30.206Z,9.70
2022-12-20T08:09:01.903Z,9.80
2022-12-20T08:11:31.239Z,9.80
2022-12-20T08:13:59.477Z,9.80
2022-12-20T08:16:28.873Z,9.80
2022-12-20T08:18:56.883Z,9.80
2022-12-20T08:21:31.025Z,9.80
2022-12-20T08:23:59.003Z,9.80
2022-12-20T08:26:27.586Z,9.70
2022-12-20T08:28:55.738Z,9.70
2022-12-20T08:31:24.454Z,9.60
2022-12-20T08:33:55.687Z,9.60
2022-12-20T08:36:23.755Z,9.50
2022-12-20T08:38:51.754Z,9.50
2022-12-20T08:41:19.922Z,9.50
2022-12-20T08:43:47.908Z,9.50
2022-12-20T08:46:16.028Z,9.60
2022-12-20T08:48:44.144Z,9.60
2022-12-20T08:51:13.965Z,9.60
2022-12-20T08:53:42.040Z,9.60
2022-12-20T08:56:12.573Z,9.70
2022-12-20T08:58:42.714Z,9.60
2022-12-20T09:01:13.290Z,9.60
2022-12-20T09:03:41.756Z,9.60
2022-12-20T09:06:11.577Z,9.60
2022-12-20T09:08:41.793Z,9.60
2022-12-20T09:11:13.008Z,9.60
2022-12-20T09:13:44.223Z,9.60
2022-12-20T09:16:14.588Z,9.60
2022-12-20T09:18:43.113Z,9.70
2022-12-20T09:21:12.320Z,9.70
2022-12-20T09:23:42.074Z,9.70
2022-12-20T09:26:12.840Z,9.70
2022-12-20T09:28:41.051Z,9.80
2022-12-20T09:31:12.653Z,9.80
2022-12-20T09:33:41.916Z,9.70
2022-12-20T09:36:13.040Z,9.70
2022-12-20T09:38:42.478Z,9.70
2022-12-20T09:41:25.213Z,9.70
2022-12-20T09:43:53.935Z,9.70
2022-12-20T09:46:22.151Z,9.70
2022-12-20T09:48:50.896Z,9.70
2022-12-20T09:51:37.629Z,9.80
2022-12-20T09:54:21.486Z,9.80
2022-12-20T09:57:01.203Z,10.00
2022-12-20T09:59:32.917Z,10.00
2022-12-20T10:02:19.512Z,10.10
2022-12-20T10:04:52.585Z,10.10
2022-12-20T10:07:34.253Z,10.20
2022-12-20T10:10:21.492Z,10.20
2022-12-20T10:12:58.996Z,10.30
2022-12-20T10:15:33.257Z,10.20
2022-12-20T10:18:22.891Z,10.30
2022-12-20T10:21:01.673Z,10.30
2022-12-20T10:23:35.048Z,10.40
2022-12-20T10:26:10.364Z,10.40
2022-12-20T10:28:39.252Z,10.40
2022-12-20T10:31:14.782Z,10.40
2022-12-20T10:33:44.032Z,10.50
2022-12-20T10:36:24.157Z,10.50
2022-12-20T10:38:54.276Z,10.60
2022-12-20T10:41:25.476Z,10.60
2022-12-20T10:43:59.189Z,10.60
2022-12-20T10:46:38.216Z,10.70
2022-12-20T10:49:31.088Z,10.60
2022-12-20T10:52:02.521Z,10.70
2022-12-20T10:54:34.176Z,10.70
2022-12-20T10:57:15.006Z,10.70
2022-12-20T10:59:46.459Z,10.80
2022-12-20T11:02:31.947Z,10.80
2022-12-20T11:05:24.306Z,10.80
2022-12-20T11:10:45.904Z,10.80
2022-12-20T11:13:24.065Z,10.80
2022-12-20T11:15:57.035Z,10.80
2022-12-20T11:18:39.324Z,10.80
2022-12-20T11:21:27.689Z,10.80
2022-12-20T11:24:03.267Z,10.80
2022-12-20T11:26:43.698Z,10.90
2022-12-20T11:29:29.768Z,11.10
2022-12-20T11:32:05.497Z,11.00
2022-12-20T11:34:40.428Z,11.00
2022-12-20T11:37:20.194Z,10.90
2022-12-20T11:40:07.160Z,10.80
2022-12-20T11:42:48.983Z,10.80
2022-12-20T11:45:26.717Z,10.80
2022-12-20T11:48:20.035Z,10.90
2022-12-20T11:50:59.691Z,10.90
2022-12-20T11:53:33.431Z,10.90
2022-12-20T11:56:08.032Z,10.90
2022-12-20T11:58:51.795Z,10.90
2022-12-20T12:01:26.118Z,10.90
2022-12-20T12:04:04.195Z,10.90
2022-12-20T12:06:36.811Z,10.90
2022-12-20T12:09:18.247Z,10.90
2022-12-20T12:12:08.219Z,10.90
2022-12-20T12:14:49.900Z,10.90
2022-12-20T12:17:27.453Z,10.90
2022-12-20T12:20:01.451Z,10.90
2022-12-20T12:22:34.232Z,11.00
2022-12-20T12:25:07.391Z,11.10
2022-12-20T12:27:35.848Z,11.10
2022-12-20T12:30:04.165Z,11.10
2022-12-20T12:32:38.381Z,11.10
2022-12-20T12:35:33.916Z,11.00
2022-12-20T12:38:27.535Z,10.90
2022-12-20T12:41:14.321Z,10.90
2022-12-20T12:46:39.328Z,10.90
2022-12-20T12:49:16.888Z,10.90
2022-12-20T12:51:55.147Z,10.90
2022-12-20T12:54:26.567Z,10.80
2022-12-20T12:57:02.426Z,10.90
2022-12-20T12:59:52.471Z,10.90
2022-12-20T13:02:35.324Z,11.00
2022-12-20T13:05:36.057Z,11.00
2022-12-20T13:08:05.050Z,10.90
2022-12-20T13:11:00.589Z,10.90
2022-12-20T13:13:28.723Z,10.80
2022-12-20T13:17:09.574Z,10.70
2022-12-20T13:19:30.926Z,10.70
2022-12-20T13:22:15.793Z,10.70
2022-12-20T13:24:57.016Z,10.60
2022-12-20T13:27:28.812Z,10.60
2022-12-20T13:30:17.245Z,10.50
2022-12-20T13:33:00.136Z,10.50
2022-12-20T13:35:42.128Z,10.60
2022-12-20T13:38:44.759Z,10.60
2022-12-20T13:41:26.917Z,10.50
2022-12-20T13:44:03.875Z,10.50
2022-12-20T13:46:42.014Z,10.60
2022-12-20T13:49:13.045Z,10.60
2022-12-20T13:51:41.289Z,10.60
2022-12-20T13:54:20.488Z,10.70
2022-12-20T13:56:56.609Z,10.70
2022-12-20T13:59:28.413Z,10.70
2022-12-20T14:01:59.566Z,10.70
2022-12-20T14:04:29.854Z,10.70
2022-12-20T14:07:01.253Z,10.70
2022-12-20T14:09:33.954Z,10.80
2022-12-20T14:12:12.745Z,10.90
2022-12-20T14:14:44.985Z,10.90
2022-12-20T14:17:18.007Z,10.90
2022-12-20T14:19:46.260Z,10.90
2022-12-20T14:22:15.022Z,10.90
2022-12-20T14:24:44.816Z,10.90
2022-12-20T14:27:15.693Z,10.90
2022-12-20T14:29:46.881Z,10.80
2022-12-20T14:32:20.382Z,10.90
2022-12-20T14:34:48.964Z,10.90
2022-12-20T14:37:29.535Z,10.90
2022-12-20T14:40:01.609Z,10.80
2022-12-20T14:42:34.876Z,10.80
2022-12-20T14:45:08.147Z,10.70
2022-12-20T14:47:37.511Z,10.70
2022-12-20T14:50:15.073Z,10.70
2022-12-20T14:52:43.478Z,10.60
2022-12-20T14:55:20.484Z,10.60
2022-12-20T14:57:51.986Z,10.60
2022-12-20T15:00:25.678Z,10.60
2022-12-20T15:03:01.692Z,10.60
2022-12-20T15:05:51.829Z,10.60
2022-12-20T15:08:22.510Z,10.70
2022-12-20T15:11:01.072Z,10.60
2022-12-20T15:13:33.345Z,10.70
2022-12-20T15:16:04.501Z,10.70
2022-12-20T15:18:33.203Z,10.70
2022-12-20T15:21:05.749Z,10.70
2022-12-20T15:23:34.911Z,10.80
2022-12-20T15:26:03.192Z,10.80
2022-12-20T15:28:33.004Z,10.80
2022-12-20T15:31:01.142Z,10.80
2022-12-20T15:33:33.223Z,10.70
2022-12-20T15:36:01.264Z,10.80
2022-12-20T15:38:54.918Z,10.70
2022-12-20T15:41:21.119Z,10.80
2022-12-20T15:43:53.270Z,10.80
2022-12-20T15:46:21.397Z,10.80
2022-12-20T15:48:49.649Z,10.80
2022-12-20T15:51:24.326Z,10.80
2022-12-20T15:53:52.332Z,10.80
2022-12-20T15:56:22.741Z,10.80
2022-12-20T15:58:52.901Z,10.80
2022-12-20T16:01:25.306Z,10.70
2022-12-20T16:03:53.565Z,10.80
2022-12-20T16:06:23.095Z,10.70
2022-12-20T16:08:51.158Z,10.70
2022-12-20T16:11:23.130Z,10.70
2022-12-20T16:13:52.848Z,10.70
2022-12-20T16:16:22.828Z,10.60
2022-12-20T16:18:51.650Z,10.60
2022-12-20T16:21:21.665Z,10.60
2022-12-20T16:23:50.758Z,10.60
2022-12-20T16:26:21.284Z,10.50
2022-12-20T16:28:49.922Z,10.50
2022-12-20T16:31:25.553Z,10.60
2022-12-20T16:33:54.628Z,10.60
2022-12-20T16:36:22.921Z,10.60
2022-12-20T16:38:51.661Z,10.60
2022-12-20T16:41:21.299Z,10.60
2022-12-20T16:43:50.073Z,10.70
2022-12-20T16:46:21.805Z,10.60
2022-12-20T16:48:50.281Z,10.60
2022-12-20T16:51:26.367Z,10.60
2022-12-20T16:54:18.034Z,10.60
2022-12-20T16:56:43.970Z,10.60
2022-12-20T16:59:22.038Z,10.60
2022-12-20T17:01:53.927Z,10.60
2022-12-20T17:04:25.043Z,10.60
2022-12-20T17:06:53.117Z,10.60
2022-12-20T17:09:21.424Z,10.60
2022-12-20T17:11:50.418Z,10.70
2022-12-20T17:14:19.808Z,10.60
2022-12-20T17:16:48.017Z,10.70
2022-12-20T17:19:17.449Z,10.70
2022-12-20T17:24:33.349Z,10.70
2022-12-20T17:27:01.364Z,10.60
2022-12-20T17:29:29.449Z,10.80
2022-12-20T17:31:57.537Z,10.90
2022-12-20T17:34:28.400Z,10.90
2022-12-20T17:36:57.956Z,10.90
2022-12-20T17:39:26.942Z,10.80
2022-12-20T17:41:56.449Z,10.80
2022-12-20T17:44:26.484Z,10.70
2022-12-20T17:46:55.774Z,10.70
2022-12-20T17:49:25.912Z,10.70
2022-12-20T17:51:53.949Z,10.70
2022-12-20T17:54:23.590Z,10.70
2022-12-20T17:56:51.940Z,10.70
2022-12-20T17:59:20.369Z,10.70
2022-12-20T18:01:48.701Z,10.70
2022-12-20T18:04:17.693Z,10.60
2022-12-20T18:06:47.470Z,10.70
2022-12-20T18:09:21.546Z,10.60
2022-12-20T18:11:51.449Z,10.60
2022-12-20T18:14:19.501Z,10.60
2022-12-20T18:16:47.654Z,10.50
2022-12-20T18:19:18.192Z,10.50
2022-12-20T18:21:47.616Z,10.50
2022-12-20T18:24:17.369Z,10.50
2022-12-20T18:26:45.892Z,10.50
2022-12-20T18:29:16.089Z,10.50
2022-12-20T18:31:44.238Z,10.50
2022-12-20T18:34:12.329Z,10.50
2022-12-20T18:36:40.443Z,10.50
2022-12-20T18:39:12.934Z,10.40
2022-12-20T18:41:43.009Z,10.50
2022-12-20T18:44:12.084Z,10.50
2022-12-20T18:46:40.712Z,10.40
2022-12-20T18:49:09.990Z,10.50
2022-12-20T18:51:38.388Z,10.50
2022-12-20T18:54:08.692Z,10.70
2022-12-20T18:56:39.443Z,10.70
2022-12-20T18:59:11.802Z,10.70
2022-12-20T19:01:41.826Z,10.70
2022-12-20T19:04:10.695Z,10.60
2022-12-20T19:06:39.065Z,10.60
2022-12-20T19:09:11.170Z,10.60
2022-12-20T19:11:41.400Z,10.50
2022-12-20T19:14:10.157Z,10.50
2022-12-20T19:16:39.767Z,10.50
2022-12-20T19:19:09.241Z,10.50
2022-12-20T19:21:38.931Z,10.50
2022-12-20T19:24:08.019Z,10.50
2022-12-20T19:26:37.538Z,10.50
2022-12-20T19:29:07.833Z,10.50
2022-12-20T19:31:37.486Z,10.50
2022-12-20T19:34:07.747Z,10.50
2022-12-20T19:36:39.276Z,10.60
2022-12-20T19:39:12.826Z,10.50
2022-12-20T19:41:41.126Z,10.50
2022-12-20T19:44:10.531Z,10.50
2022-12-20T19:46:38.607Z,10.60
2022-12-20T19:49:06.800Z,10.80
2022-12-20T19:51:34.912Z,10.90
2022-12-20T19:54:03.183Z,10.90
2022-12-20T19:56:33.622Z,10.80
2022-12-20T19:59:02.284Z,10.70
2022-12-20T20:01:31.831Z,10.70
2022-12-20T20:04:01.815Z,10.60
2022-12-20T20:06:30.086Z,10.60
2022-12-20T20:08:59.738Z,10.60
2022-12-20T20:11:30.797Z,10.60
2022-12-20T20:14:00.433Z,10.60
2022-12-20T20:16:28.542Z,10.60
2022-12-20T20:18:58.141Z,10.50
2022-12-20T20:21:26.310Z,10.50
2022-12-20T20:23:55.267Z,10.50
2022-12-20T20:26:25.272Z,10.50
2022-12-20T20:28:54.099Z,10.50
2022-12-20T20:31:22.946Z,10.50
2022-12-20T20:33:51.695Z,10.50
2022-12-20T20:36:23.324Z,10.50
2022-12-20T20:38:52.288Z,10.50
2022-12-20T20:41:20.420Z,10.50
2022-12-20T20:43:48.783Z,10.60
2022-12-20T20:46:18.538Z,10.60
2022-12-20T20:48:47.079Z,10.50
2022-12-20T20:51:15.291Z,10.50
2022-12-20T20:53:44.892Z,10.50
2022-12-20T20:56:12.945Z,10.40
2022-12-20T20:58:41.034Z,10.40
2022-12-20T21:01:09.695Z,10.40
2022-12-20T21:03:38.680Z,10.40
2022-12-20T21:08:57.807Z,10.50
2022-12-20T21:11:25.934Z,10.40
2022-12-20T21:13:54.971Z,10.50
2022-12-20T21:16:24.423Z,10.50
2022-12-20T21:18:53.073Z,10.50
2022-12-20T21:21:21.765Z,10.50
2022-12-20T21:23:50.583Z,10.50
2022-12-20T21:26:21.798Z,10.50
2022-12-20T21:28:49.916Z,10.50
2022-12-20T21:31:19.865Z,10.60
2022-12-20T21:33:48.033Z,10.60
2022-12-20T21:36:17.461Z,10.50
2022-12-20T21:38:50.326Z,10.50
2022-12-20T21:41:23.108Z,10.50
2022-12-20T21:43:51.676Z,10.40
2022-12-20T21:46:19.736Z,10.40
2022-12-20T21:48:47.959Z,10.40
2022-12-20T21:51:20.087Z,10.40
2022-12-20T21:53:49.664Z,10.40
2022-12-20T21:56:20.217Z,10.40
2022-12-20T21:58:48.968Z,10.40
2022-12-20T22:01:20.084Z,10.40
2022-12-20T22:03:51.547Z,10.40
2022-12-20T22:06:19.874Z,10.40
2022-12-20T22:08:47.926Z,10.40
2022-12-20T22:11:18.132Z,10.50
2022-12-20T22:13:48.076Z,10.50
2022-12-20T22:16:17.979Z,10.50
2022-12-20T22:18:49.994Z,10.50
2022-12-20T22:21:21.598Z,10.40
2022-12-20T22:23:49.940Z,10.40
2022-12-20T22:26:20.046Z,10.30
2022-12-20T22:28:51.640Z,10.30
2022-12-20T22:31:19.954Z,10.30
2022-12-20T22:33:49.324Z,10.30
2022-12-20T22:36:17.780Z,10.30
2022-12-20T22:38:46.042Z,10.30
2022-12-20T22:41:16.359Z,10.20
2022-12-20T22:43:45.528Z,10.20
2022-12-20T22:46:16.301Z,10.20
2022-12-20T22:48:45.990Z,10.10
2022-12-20T22:51:16.093Z,10.10
2022-12-20T22:53:44.844Z,10.10
2022-12-20T22:56:13.138Z,10.10
2022-12-20T22:58:41.487Z,10.10
2022-12-20T23:01:12.422Z,10.10
2022-12-20T23:03:42.579Z,10.00
2022-12-20T23:06:13.762Z,10.00
2022-12-20T23:08:42.174Z,10.00
2022-12-20T23:11:34.060Z,10.00
2022-12-20T23:14:19.471Z,10.10
2022-12-20T23:16:47.609Z,10.10
2022-12-20T23:19:17.015Z,10.10
2022-12-20T23:22:03.411Z,10.10
2022-12-20T23:24:31.491Z,10.10
2022-12-20T23:26:59.489Z,10.10
2022-12-20T23:29:27.537Z,10.00
2022-12-20T23:31:56.116Z,10.00
2022-12-20T23:34:25.691Z,10.00
2022-12-20T23:36:53.713Z,10.00
2022-12-20T23:39:21.725Z,10.10
2022-12-20T23:41:49.688Z,10.00
2022-12-20T23:44:17.698Z,10.00
2022-12-20T23:46:45.708Z,10.00
2022-12-20T23:49:13.720Z,10.00
2022-12-20T23:51:43.120Z,10.00
2022-12-20T23:54:12.222Z,10.00
2022-12-20T23:56:40.281Z,10.00
2022-12-20T23:59:08.649Z,9.90
